createdAt,value
2017-10-09T00:00:02.099Z,0
2017-10-09T00:00:42.624Z,0
2017-10-09T00:01:23.158Z,0
2017-10-09T00:02:03.697Z,0
2017-10-09T00:02:44.234Z,0
2017-10-09T00:03:24.763Z,0
2017-10-09T00:04:05.295Z,0
2017-10-09T00:04:45.831Z,0
2017-10-09T00:05:26.363Z,0
2017-10-09T00:06:06.902Z,0
2017-10-09T00:06:47.435Z,0
2017-10-09T00:07:27.967Z,0
2017-10-09T00:08:08.506Z,0
2017-10-09T00:08:49.040Z,0
2017-10-09T00:09:29.568Z,0
2017-10-09T00:10:10.112Z,0
2017-10-09T00:10:50.719Z,0
2017-10-09T00:11:31.253Z,0
2017-10-09T00:12:11.771Z,0
2017-10-09T00:12:52.307Z,0
2017-10-09T00:13:32.842Z,0
2017-10-09T00:14:13.372Z,0
2017-10-09T00:14:53.908Z,0
2017-10-09T00:15:34.431Z,0
2017-10-09T00:16:14.963Z,0
2017-10-09T00:16:55.497Z,0
2017-10-09T00:17:36.029Z,0
2017-10-09T00:18:16.567Z,0
2017-10-09T00:18:57.096Z,0
2017-10-09T00:19:37.627Z,0
2017-10-09T00:20:18.166Z,0
2017-10-09T00:20:58.685Z,0
2017-10-09T00:21:39.228Z,0
2017-10-09T00:22:19.764Z,0
2017-10-09T00:23:00.290Z,0
2017-10-09T00:23:40.826Z,0
2017-10-09T00:24:21.366Z,0
2017-10-09T00:25:01.889Z,0
2017-10-09T00:25:42.430Z,0
2017-10-09T00:26:22.955Z,0
2017-10-09T00:27:03.491Z,0
2017-10-09T00:27:44.020Z,0
2017-10-09T00:28:24.552Z,0
2017-10-09T00:29:05.084Z,0
2017-10-09T00:29:45.618Z,0
2017-10-09T00:30:26.153Z,0
2017-10-09T00:31:06.684Z,0
2017-10-09T00:31:47.220Z,0
2017-10-09T00:32:27.750Z,0
2017-10-09T00:33:08.284Z,0
2017-10-09T00:33:48.817Z,0
2017-10-09T00:34:29.343Z,0
2017-10-09T00:35:09.875Z,0
2017-10-09T00:35:50.410Z,0
2017-10-09T00:36:30.939Z,0
2017-10-09T00:37:11.478Z,0
2017-10-09T00:37:52.012Z,0
2017-10-09T00:38:32.550Z,0
2017-10-09T00:39:13.083Z,0
2017-10-09T00:39:53.617Z,0
2017-10-09T00:40:34.155Z,0
2017-10-09T00:41:14.689Z,0
2017-10-09T00:41:55.216Z,0
2017-10-09T00:42:35.752Z,0
2017-10-09T00:43:16.280Z,0
2017-10-09T00:43:56.813Z,0
2017-10-09T00:44:37.344Z,0
2017-10-09T00:45:17.877Z,0
2017-10-09T00:45:58.408Z,0
2017-10-09T00:46:38.945Z,0
2017-10-09T00:47:19.500Z,0
2017-10-09T00:48:00.014Z,0
2017-10-09T00:48:40.548Z,0
2017-10-09T00:49:21.078Z,0
2017-10-09T00:50:01.614Z,0
2017-10-09T00:50:42.147Z,0
2017-10-09T00:51:22.684Z,0
2017-10-09T00:52:03.215Z,0
2017-10-09T00:52:43.749Z,0
2017-10-09T00:53:24.282Z,0
2017-10-09T00:54:04.848Z,0
2017-10-09T00:54:45.341Z,0
2017-10-09T00:55:25.884Z,0
2017-10-09T00:56:06.417Z,0
2017-10-09T00:56:46.936Z,0
2017-10-09T00:57:27.465Z,0
2017-10-09T00:58:07.995Z,0
2017-10-09T00:58:48.531Z,0
2017-10-09T00:59:29.067Z,0
2017-10-09T01:00:09.605Z,0
2017-10-09T01:00:50.137Z,0
2017-10-09T01:01:30.674Z,0
2017-10-09T01:02:11.204Z,0
2017-10-09T01:02:51.743Z,0
2017-10-09T01:03:32.279Z,0
2017-10-09T01:04:12.811Z,0
2017-10-09T01:04:53.341Z,0
2017-10-09T01:05:33.880Z,0
2017-10-09T01:06:14.412Z,0
2017-10-09T01:06:54.945Z,0
2017-10-09T01:07:35.478Z,0
2017-10-09T01:08:16.012Z,0
2017-10-09T01:08:56.541Z,0
2017-10-09T01:09:37.074Z,0
2017-10-09T01:10:17.606Z,0
2017-10-09T01:10:58.140Z,0
2017-10-09T01:11:38.673Z,0
2017-10-09T01:12:19.252Z,0
2017-10-09T01:12:59.784Z,0
2017-10-09T01:13:40.317Z,0
2017-10-09T01:14:20.854Z,0
2017-10-09T01:15:01.387Z,0
2017-10-09T01:15:41.919Z,0
2017-10-09T01:16:22.453Z,0
2017-10-09T01:17:02.986Z,0
2017-10-09T01:17:43.519Z,0
2017-10-09T01:18:24.053Z,0
2017-10-09T01:19:04.584Z,0
2017-10-09T01:19:45.114Z,0
2017-10-09T01:20:25.648Z,0
2017-10-09T01:21:06.175Z,0
2017-10-09T01:21:46.720Z,0
2017-10-09T01:22:27.252Z,0
2017-10-09T01:23:07.781Z,0
2017-10-09T01:23:48.311Z,0
2017-10-09T01:24:28.845Z,0
2017-10-09T01:25:09.376Z,0
2017-10-09T01:25:49.914Z,0
2017-10-09T01:26:30.445Z,0
2017-10-09T01:27:11.008Z,0
2017-10-09T01:27:51.541Z,0
2017-10-09T01:28:32.074Z,0
2017-10-09T01:29:12.612Z,0
2017-10-09T01:29:53.144Z,0
2017-10-09T01:30:33.675Z,0
2017-10-09T01:31:14.209Z,0
2017-10-09T01:31:54.738Z,0
2017-10-09T01:32:35.278Z,0
2017-10-09T01:33:15.816Z,0
2017-10-09T01:33:56.348Z,0
2017-10-09T01:34:36.882Z,0
2017-10-09T01:35:17.413Z,0
2017-10-09T01:35:57.950Z,0
2017-10-09T01:36:38.479Z,0
2017-10-09T01:37:19.019Z,0
2017-10-09T01:37:59.553Z,0
2017-10-09T01:38:40.088Z,0
2017-10-09T01:39:20.631Z,0
2017-10-09T01:40:01.155Z,0
2017-10-09T01:40:41.690Z,0
2017-10-09T01:41:22.226Z,0
2017-10-09T01:42:02.763Z,0
2017-10-09T01:42:43.294Z,0
2017-10-09T01:43:23.823Z,0
2017-10-09T01:44:04.354Z,0
2017-10-09T01:44:44.888Z,0
2017-10-09T01:45:25.425Z,0
2017-10-09T01:46:05.945Z,0
2017-10-09T01:46:46.488Z,0
2017-10-09T01:47:27.013Z,0
2017-10-09T01:48:07.550Z,0
2017-10-09T01:48:48.082Z,0
2017-10-09T01:49:28.624Z,0
2017-10-09T01:50:09.185Z,0
2017-10-09T01:50:49.723Z,0
2017-10-09T01:51:30.250Z,0
2017-10-09T01:52:10.794Z,0
2017-10-09T01:52:51.327Z,0
2017-10-09T01:53:31.860Z,0
2017-10-09T01:54:12.392Z,0
2017-10-09T01:54:52.932Z,0
2017-10-09T01:55:33.454Z,0
2017-10-09T01:56:14.012Z,0
2017-10-09T01:56:54.550Z,0
2017-10-09T01:57:35.081Z,0
2017-10-09T01:58:15.614Z,0
2017-10-09T01:58:56.147Z,0
2017-10-09T01:59:36.683Z,0
2017-10-09T02:00:17.214Z,0
2017-10-09T02:00:57.755Z,0
2017-10-09T02:01:38.286Z,0
2017-10-09T02:02:18.811Z,0
2017-10-09T02:02:59.348Z,0
2017-10-09T02:03:39.889Z,0
2017-10-09T02:04:20.419Z,0
2017-10-09T02:05:00.958Z,0
2017-10-09T02:05:41.494Z,0
2017-10-09T02:06:22.014Z,0
2017-10-09T02:07:02.551Z,0
2017-10-09T02:07:43.085Z,0
2017-10-09T02:08:23.619Z,0
2017-10-09T02:09:04.158Z,0
2017-10-09T02:09:44.705Z,0
2017-10-09T02:10:25.229Z,0
2017-10-09T02:11:05.783Z,0
2017-10-09T02:11:46.297Z,0
2017-10-09T02:12:26.828Z,0
2017-10-09T02:13:07.363Z,0
2017-10-09T02:13:47.893Z,0
2017-10-09T02:14:28.445Z,0
2017-10-09T02:15:08.981Z,0
2017-10-09T02:15:49.513Z,0
2017-10-09T02:16:30.052Z,0
2017-10-09T02:17:10.583Z,0
2017-10-09T02:17:51.116Z,0
2017-10-09T02:18:31.648Z,0
2017-10-09T02:19:12.182Z,0
2017-10-09T02:19:52.715Z,0
2017-10-09T02:20:33.252Z,0
2017-10-09T02:21:13.786Z,0
2017-10-09T02:21:54.323Z,0
2017-10-09T02:22:34.868Z,0
2017-10-09T02:23:15.400Z,0
2017-10-09T02:23:55.933Z,0
2017-10-09T02:24:36.465Z,0
2017-10-09T02:25:17.006Z,0
2017-10-09T02:25:57.550Z,0
2017-10-09T02:26:38.072Z,0
2017-10-09T02:27:18.601Z,0
2017-10-09T02:27:59.132Z,0
2017-10-09T02:28:39.665Z,0
2017-10-09T02:29:20.201Z,0
2017-10-09T02:30:00.736Z,0
2017-10-09T02:30:41.276Z,0
2017-10-09T02:31:21.810Z,0
2017-10-09T02:32:02.382Z,0
2017-10-09T02:32:42.873Z,0
2017-10-09T02:33:23.405Z,0
2017-10-09T02:34:03.939Z,0
2017-10-09T02:34:44.493Z,0
2017-10-09T02:35:25.029Z,0
2017-10-09T02:36:05.558Z,0
2017-10-09T02:36:46.087Z,0
2017-10-09T02:37:26.624Z,0
2017-10-09T02:38:07.159Z,0
2017-10-09T02:38:47.686Z,0
2017-10-09T02:39:28.229Z,0
2017-10-09T02:40:08.756Z,0
2017-10-09T02:40:49.291Z,0
2017-10-09T02:41:29.825Z,0
2017-10-09T02:42:10.364Z,0
2017-10-09T02:42:50.894Z,0
2017-10-09T02:43:31.464Z,0
2017-10-09T02:44:11.948Z,0
2017-10-09T02:44:52.485Z,0
2017-10-09T02:45:33.022Z,0
2017-10-09T02:46:13.558Z,0
2017-10-09T02:46:54.089Z,0
2017-10-09T02:47:34.617Z,0
2017-10-09T02:48:15.155Z,0
2017-10-09T02:48:55.691Z,0
2017-10-09T02:49:36.227Z,0
2017-10-09T02:50:16.767Z,0
2017-10-09T02:50:57.309Z,0
2017-10-09T02:51:37.843Z,0
2017-10-09T02:52:18.389Z,0
2017-10-09T02:52:58.925Z,0
2017-10-09T02:53:39.459Z,0
2017-10-09T02:54:19.989Z,0
2017-10-09T02:55:00.531Z,0
2017-10-09T02:55:41.059Z,0
2017-10-09T02:56:21.589Z,0
2017-10-09T02:57:02.116Z,0
2017-10-09T02:57:42.645Z,0
2017-10-09T02:58:23.183Z,0
2017-10-09T02:59:03.715Z,0
2017-10-09T02:59:44.249Z,0
2017-10-09T03:00:24.780Z,0
2017-10-09T03:01:05.309Z,0
2017-10-09T03:01:45.844Z,0
2017-10-09T03:02:26.367Z,0
2017-10-09T03:03:06.903Z,0
2017-10-09T03:03:47.436Z,0
2017-10-09T03:04:27.972Z,0
2017-10-09T03:05:08.503Z,0
2017-10-09T03:05:49.038Z,0
2017-10-09T03:06:29.559Z,0
2017-10-09T03:07:10.115Z,0
2017-10-09T03:07:50.675Z,0
2017-10-09T03:08:31.177Z,0
2017-10-09T03:09:11.706Z,0
2017-10-09T03:09:52.247Z,0
2017-10-09T03:10:32.855Z,0
2017-10-09T03:11:13.407Z,0
2017-10-09T03:11:53.931Z,0
2017-10-09T03:12:34.470Z,0
2017-10-09T03:13:15.003Z,0
2017-10-09T03:13:55.539Z,0
2017-10-09T03:14:36.071Z,0
2017-10-09T03:15:16.610Z,0
2017-10-09T03:15:57.147Z,0
2017-10-09T03:16:37.677Z,0
2017-10-09T03:17:18.209Z,0
2017-10-09T03:17:58.749Z,0
2017-10-09T03:18:39.283Z,0
2017-10-09T03:19:19.816Z,0
2017-10-09T03:20:00.344Z,0
2017-10-09T03:20:40.874Z,0
2017-10-09T03:21:21.407Z,0
2017-10-09T03:22:01.940Z,0
2017-10-09T03:22:42.479Z,0
2017-10-09T03:23:23.018Z,0
2017-10-09T03:24:03.540Z,0
2017-10-09T03:24:44.074Z,0
2017-10-09T03:25:24.613Z,0
2017-10-09T03:26:05.149Z,0
2017-10-09T03:26:45.680Z,0
2017-10-09T03:27:26.219Z,0
2017-10-09T03:28:06.749Z,0
2017-10-09T03:28:47.291Z,0
2017-10-09T03:29:27.817Z,0
2017-10-09T03:30:08.357Z,0
2017-10-09T03:30:48.887Z,0
2017-10-09T03:31:29.423Z,0
2017-10-09T03:32:09.960Z,0
2017-10-09T03:32:50.493Z,0
2017-10-09T03:33:31.016Z,0
2017-10-09T03:34:11.550Z,0
2017-10-09T03:34:52.080Z,0
2017-10-09T03:35:32.606Z,0
2017-10-09T03:36:13.143Z,0
2017-10-09T03:36:53.677Z,0
2017-10-09T03:37:34.207Z,0
2017-10-09T03:38:14.736Z,0
2017-10-09T03:38:55.323Z,0
2017-10-09T03:39:35.864Z,0
2017-10-09T03:40:16.400Z,0
2017-10-09T03:40:56.956Z,0
2017-10-09T03:41:37.519Z,0
2017-10-09T03:42:18.055Z,0
2017-10-09T03:42:58.604Z,0
2017-10-09T03:43:39.146Z,0
2017-10-09T03:44:19.684Z,0
2017-10-09T03:45:00.219Z,0
2017-10-09T03:45:40.743Z,0
2017-10-09T03:46:21.277Z,0
2017-10-09T03:47:01.824Z,0
2017-10-09T03:47:42.346Z,0
2017-10-09T03:48:22.891Z,0
2017-10-09T03:49:03.441Z,0
2017-10-09T03:49:43.992Z,0
2017-10-09T03:50:24.520Z,0
2017-10-09T03:51:05.056Z,0
2017-10-09T03:51:45.591Z,0
2017-10-09T03:52:26.533Z,0
2017-10-09T03:53:08.976Z,0
2017-10-09T03:53:51.401Z,0
2017-10-09T03:54:32.301Z,0
2017-10-09T03:55:12.836Z,0
2017-10-09T03:55:53.358Z,0
2017-10-09T03:56:33.913Z,0
2017-10-09T03:57:14.452Z,0
2017-10-09T03:57:54.982Z,0
2017-10-09T03:58:35.524Z,0
2017-10-09T03:59:16.055Z,0
2017-10-09T03:59:56.590Z,0
2017-10-09T04:00:37.123Z,0
2017-10-09T04:01:17.657Z,0
2017-10-09T04:01:58.179Z,0
2017-10-09T04:02:38.714Z,0
2017-10-09T04:03:19.249Z,0
2017-10-09T04:03:59.785Z,0
2017-10-09T04:04:40.321Z,0
2017-10-09T04:05:20.857Z,0
2017-10-09T04:06:01.394Z,0
2017-10-09T04:06:41.919Z,0
2017-10-09T04:07:22.534Z,0
2017-10-09T04:08:03.046Z,0
2017-10-09T04:08:43.583Z,0
2017-10-09T04:09:24.112Z,0
2017-10-09T04:10:04.654Z,0
2017-10-09T04:10:45.183Z,0
2017-10-09T04:11:25.716Z,0
2017-10-09T04:12:06.286Z,0
2017-10-09T04:12:46.768Z,0
2017-10-09T04:13:27.303Z,0
2017-10-09T04:14:07.837Z,0
2017-10-09T04:14:48.370Z,0
2017-10-09T04:15:28.906Z,0
2017-10-09T04:16:09.438Z,0
2017-10-09T04:16:49.968Z,0
2017-10-09T04:17:30.498Z,0
2017-10-09T04:18:11.034Z,0
2017-10-09T04:18:51.570Z,0
2017-10-09T04:19:32.096Z,0
2017-10-09T04:20:12.616Z,0
2017-10-09T04:20:53.221Z,0
2017-10-09T04:21:33.742Z,0
2017-10-09T04:22:14.274Z,0
2017-10-09T04:22:54.810Z,0
2017-10-09T04:23:35.342Z,0
2017-10-09T04:24:15.878Z,0
2017-10-09T04:24:56.417Z,0
2017-10-09T04:25:36.947Z,0
2017-10-09T04:26:17.472Z,0
2017-10-09T04:26:58.014Z,0
2017-10-09T04:27:38.551Z,0
2017-10-09T04:28:19.079Z,0
2017-10-09T04:28:59.585Z,0
2017-10-09T04:29:40.119Z,0
2017-10-09T04:30:20.654Z,0
2017-10-09T04:31:01.183Z,0
2017-10-09T04:31:41.732Z,0
2017-10-09T04:32:22.252Z,0
2017-10-09T04:33:02.782Z,0
2017-10-09T04:33:43.318Z,0
2017-10-09T04:34:23.872Z,0
2017-10-09T04:35:04.420Z,0
2017-10-09T04:35:44.958Z,0
2017-10-09T04:36:25.530Z,0
2017-10-09T04:37:06.073Z,0
2017-10-09T04:37:46.669Z,0
2017-10-09T04:38:27.201Z,0
2017-10-09T04:39:07.753Z,0
2017-10-09T04:39:48.284Z,0
2017-10-09T04:40:28.838Z,0
2017-10-09T04:41:09.376Z,0
2017-10-09T04:41:49.908Z,0
2017-10-09T04:42:30.436Z,0
2017-10-09T04:43:10.961Z,0
2017-10-09T04:43:51.497Z,0
2017-10-09T04:44:32.036Z,0
2017-10-09T04:45:12.579Z,0
2017-10-09T04:45:53.113Z,0
2017-10-09T04:46:33.646Z,0
2017-10-09T04:47:14.179Z,0
2017-10-09T04:47:54.704Z,0
2017-10-09T04:48:35.239Z,0
2017-10-09T04:49:15.767Z,0
2017-10-09T04:49:56.309Z,0
2017-10-09T04:50:36.826Z,0
2017-10-09T04:51:17.348Z,0
2017-10-09T04:51:57.887Z,0
2017-10-09T04:52:38.426Z,0
2017-10-09T04:53:18.955Z,0
2017-10-09T04:53:59.486Z,0
2017-10-09T04:54:40.076Z,0
2017-10-09T04:55:20.615Z,0
2017-10-09T04:56:01.154Z,0
2017-10-09T04:58:40.789Z,0
2017-10-09T04:59:21.313Z,0
2017-10-09T05:00:01.845Z,0
2017-10-09T05:00:42.404Z,0
2017-10-09T05:01:22.941Z,0
2017-10-09T05:02:03.475Z,0
2017-10-09T05:02:44.009Z,0
2017-10-09T05:03:24.539Z,0
2017-10-09T05:04:05.088Z,0
2017-10-09T05:04:45.587Z,0
2017-10-09T05:05:26.123Z,0
2017-10-09T05:06:06.651Z,0
2017-10-09T05:06:47.183Z,0
2017-10-09T05:07:27.715Z,0
2017-10-09T05:08:08.247Z,0
2017-10-09T05:08:48.796Z,0
2017-10-09T05:09:29.329Z,0
2017-10-09T05:10:09.876Z,0
2017-10-09T05:10:50.407Z,0
2017-10-09T05:11:30.937Z,0
2017-10-09T05:12:11.459Z,0
2017-10-09T05:12:51.991Z,0
2017-10-09T05:13:32.526Z,0
2017-10-09T05:14:13.050Z,0
2017-10-09T05:14:53.571Z,0
2017-10-09T05:15:34.101Z,0
2017-10-09T05:16:14.647Z,0
2017-10-09T05:16:55.186Z,0
2017-10-09T05:17:35.720Z,4
2017-10-09T05:18:16.244Z,0
2017-10-09T05:18:56.769Z,0
2017-10-09T05:19:37.298Z,4
2017-10-09T05:20:17.828Z,4
2017-10-09T05:20:58.374Z,0
2017-10-09T05:21:38.885Z,4
2017-10-09T05:22:19.428Z,4
2017-10-09T05:22:59.958Z,4
2017-10-09T05:23:40.498Z,4
2017-10-09T05:24:21.031Z,4
2017-10-09T05:25:01.563Z,8
2017-10-09T05:25:42.074Z,8
2017-10-09T05:26:22.610Z,8
2017-10-09T05:27:03.147Z,8
2017-10-09T05:27:43.666Z,8
2017-10-09T05:28:24.189Z,12
2017-10-09T05:29:04.719Z,12
2017-10-09T05:29:45.253Z,16
2017-10-09T05:30:25.773Z,12
2017-10-09T05:31:06.301Z,16
2017-10-09T05:31:46.826Z,20
2017-10-09T05:32:27.358Z,20
2017-10-09T05:33:07.875Z,24
2017-10-09T05:33:48.417Z,24
2017-10-09T05:34:28.934Z,28
2017-10-09T05:35:09.455Z,28
2017-10-09T05:35:49.979Z,32
2017-10-09T05:36:30.491Z,40
2017-10-09T05:37:11.014Z,44
2017-10-09T05:37:51.549Z,48
2017-10-09T05:38:32.072Z,52
2017-10-09T05:39:12.605Z,56
2017-10-09T05:39:53.129Z,60
2017-10-09T05:40:33.653Z,64
2017-10-09T05:41:14.195Z,64
2017-10-09T05:41:54.735Z,64
2017-10-09T05:42:35.257Z,64
2017-10-09T05:43:15.784Z,72
2017-10-09T05:43:56.311Z,76
2017-10-09T05:44:36.845Z,80
2017-10-09T05:45:17.413Z,88
2017-10-09T05:45:57.949Z,96
2017-10-09T05:46:38.476Z,104
2017-10-09T05:47:19.035Z,112
2017-10-09T05:47:59.551Z,120
2017-10-09T05:48:40.072Z,132
2017-10-09T05:49:20.595Z,136
2017-10-09T05:50:01.125Z,152
2017-10-09T05:50:41.642Z,160
2017-10-09T05:51:22.180Z,172
2017-10-09T05:52:02.715Z,176
2017-10-09T05:52:43.259Z,184
2017-10-09T05:53:23.816Z,192
2017-10-09T05:54:04.336Z,200
2017-10-09T05:54:44.861Z,212
2017-10-09T05:55:25.376Z,228
2017-10-09T05:56:05.925Z,244
2017-10-09T05:56:46.448Z,248
2017-10-09T05:57:26.971Z,252
2017-10-09T05:58:07.482Z,256
2017-10-09T05:58:48.020Z,252
2017-10-09T05:59:28.556Z,256
2017-10-09T06:00:09.093Z,252
2017-10-09T06:00:49.620Z,256
2017-10-09T06:01:30.144Z,268
2017-10-09T06:02:10.673Z,264
2017-10-09T06:02:51.206Z,260
2017-10-09T06:03:31.727Z,264
2017-10-09T06:04:12.251Z,256
2017-10-09T06:04:52.785Z,252
2017-10-09T06:05:33.325Z,252
2017-10-09T06:06:13.851Z,268
2017-10-09T06:06:54.378Z,280
2017-10-09T06:07:34.900Z,280
2017-10-09T06:08:15.436Z,284
2017-10-09T06:08:55.941Z,300
2017-10-09T06:09:36.452Z,288
2017-10-09T06:10:16.977Z,280
2017-10-09T06:10:57.515Z,312
2017-10-09T06:11:38.051Z,344
2017-10-09T06:12:18.600Z,372
2017-10-09T06:12:59.146Z,396
2017-10-09T06:13:39.681Z,428
2017-10-09T06:14:20.212Z,460
2017-10-09T06:15:00.769Z,500
2017-10-09T06:15:41.298Z,552
2017-10-09T06:16:21.832Z,612
2017-10-09T06:17:02.376Z,664
2017-10-09T06:17:42.885Z,704
2017-10-09T06:18:23.410Z,748
2017-10-09T06:19:03.945Z,808
2017-10-09T06:19:44.483Z,872
2017-10-09T06:20:25.021Z,932
2017-10-09T06:21:05.543Z,964
2017-10-09T06:21:46.074Z,976
2017-10-09T06:22:26.597Z,972
2017-10-09T06:23:07.125Z,948
2017-10-09T06:23:47.678Z,940
2017-10-09T06:24:28.208Z,932
2017-10-09T06:25:08.732Z,904
2017-10-09T06:25:49.262Z,848
2017-10-09T06:26:29.796Z,800
2017-10-09T06:27:10.331Z,732
2017-10-09T06:27:50.851Z,672
2017-10-09T06:28:31.401Z,644
2017-10-09T06:29:11.909Z,636
2017-10-09T06:29:52.445Z,624
2017-10-09T06:30:32.973Z,604
2017-10-09T06:31:13.500Z,588
2017-10-09T06:31:54.043Z,576
2017-10-09T06:32:34.553Z,584
2017-10-09T06:33:15.095Z,576
2017-10-09T06:33:55.623Z,556
2017-10-09T06:34:36.149Z,552
2017-10-09T06:35:16.664Z,556
2017-10-09T06:35:57.198Z,552
2017-10-09T06:36:37.710Z,556
2017-10-09T06:37:18.254Z,548
2017-10-09T06:37:58.785Z,524
2017-10-09T06:38:39.312Z,504
2017-10-09T06:39:19.859Z,496
2017-10-09T06:40:00.403Z,496
2017-10-09T06:40:40.931Z,516
2017-10-09T06:41:21.467Z,536
2017-10-09T06:42:02.027Z,572
2017-10-09T06:42:42.659Z,604
2017-10-09T06:43:23.210Z,620
2017-10-09T06:44:03.730Z,632
2017-10-09T06:44:44.253Z,652
2017-10-09T06:45:24.776Z,680
2017-10-09T06:46:05.352Z,708
2017-10-09T06:46:45.849Z,724
2017-10-09T06:47:26.370Z,740
2017-10-09T06:48:06.900Z,764
2017-10-09T06:48:47.427Z,780
2017-10-09T06:49:27.943Z,816
2017-10-09T06:50:08.469Z,856
2017-10-09T06:50:49.007Z,904
2017-10-09T06:51:29.526Z,956
2017-10-09T06:52:10.059Z,1012
2017-10-09T06:52:50.585Z,1064
2017-10-09T06:53:31.179Z,1108
2017-10-09T06:54:11.697Z,1136
2017-10-09T06:54:52.206Z,1152
2017-10-09T06:55:32.721Z,1144
2017-10-09T06:56:13.286Z,1120
2017-10-09T06:56:53.778Z,1108
2017-10-09T06:57:34.312Z,1104
2017-10-09T06:58:14.865Z,1120
2017-10-09T06:58:55.384Z,1168
2017-10-09T06:59:35.911Z,1232
2017-10-09T07:00:16.430Z,1316
2017-10-09T07:00:56.962Z,1376
2017-10-09T07:01:37.497Z,1396
2017-10-09T07:02:18.011Z,1404
2017-10-09T07:02:58.532Z,1392
2017-10-09T07:03:39.049Z,1384
2017-10-09T07:04:19.580Z,1392
2017-10-09T07:05:00.096Z,1404
2017-10-09T07:05:40.628Z,1408
2017-10-09T07:06:21.165Z,1416
2017-10-09T07:07:01.672Z,1420
2017-10-09T07:07:42.217Z,1428
2017-10-09T07:08:22.769Z,1428
2017-10-09T07:09:03.282Z,1436
2017-10-09T07:09:43.819Z,1460
2017-10-09T07:10:24.342Z,1488
2017-10-09T07:11:04.926Z,1488
2017-10-09T07:11:45.463Z,1500
2017-10-09T07:12:25.989Z,1564
2017-10-09T07:13:06.516Z,1688
2017-10-09T07:13:47.043Z,1828
2017-10-09T07:14:27.576Z,1960
2017-10-09T07:15:08.106Z,2104
2017-10-09T07:15:48.641Z,2220
2017-10-09T07:16:29.229Z,2348
2017-10-09T07:17:09.755Z,2488
2017-10-09T07:17:50.291Z,2612
2017-10-09T07:18:30.821Z,2724
2017-10-09T07:19:11.353Z,2720
2017-10-09T07:19:51.871Z,2708
2017-10-09T07:20:32.419Z,2704
2017-10-09T07:21:12.924Z,2728
2017-10-09T07:21:53.451Z,2728
2017-10-09T07:22:33.981Z,2672
2017-10-09T07:23:14.517Z,2636
2017-10-09T07:23:55.044Z,2604
2017-10-09T07:24:35.578Z,2580
2017-10-09T07:25:16.104Z,2540
2017-10-09T07:25:56.637Z,2352
2017-10-09T07:26:37.176Z,2160
2017-10-09T07:27:17.704Z,2032
2017-10-09T07:27:58.226Z,1920
2017-10-09T07:28:38.760Z,1888
2017-10-09T07:29:19.313Z,1940
2017-10-09T07:29:59.833Z,2040
2017-10-09T07:30:40.368Z,2020
2017-10-09T07:31:20.915Z,1948
2017-10-09T07:32:01.432Z,1884
2017-10-09T07:32:41.957Z,1868
2017-10-09T07:33:22.489Z,1804
2017-10-09T07:34:03.041Z,1668
2017-10-09T07:34:43.548Z,1560
2017-10-09T07:35:24.072Z,1516
2017-10-09T07:36:04.612Z,1540
2017-10-09T07:36:45.143Z,1612
2017-10-09T07:37:25.671Z,1648
2017-10-09T07:38:06.200Z,1724
2017-10-09T07:38:46.760Z,1844
2017-10-09T07:39:27.288Z,1848
2017-10-09T07:40:07.820Z,1828
2017-10-09T07:40:48.364Z,1832
2017-10-09T07:41:28.890Z,1896
2017-10-09T07:42:09.429Z,1888
2017-10-09T07:42:49.955Z,1996
2017-10-09T07:43:30.470Z,2008
2017-10-09T07:44:11.002Z,1876
2017-10-09T07:44:51.548Z,1760
2017-10-09T07:45:32.080Z,1724
2017-10-09T07:46:12.613Z,1764
2017-10-09T07:46:53.139Z,1868
2017-10-09T07:47:33.670Z,1852
2017-10-09T07:48:14.197Z,1756
2017-10-09T07:48:54.721Z,1636
2017-10-09T07:49:35.266Z,1592
2017-10-09T07:50:15.801Z,1656
2017-10-09T07:50:56.331Z,1736
2017-10-09T07:51:36.863Z,1876
2017-10-09T07:52:17.401Z,1988
2017-10-09T07:52:57.933Z,2088
2017-10-09T07:53:38.466Z,2228
2017-10-09T07:54:19.005Z,2328
2017-10-09T07:54:59.521Z,2340
2017-10-09T07:55:40.053Z,2244
2017-10-09T07:56:20.612Z,2160
2017-10-09T07:57:01.153Z,2128
2017-10-09T07:57:41.669Z,2112
2017-10-09T07:58:22.207Z,2108
2017-10-09T07:59:02.739Z,2112
2017-10-09T07:59:43.280Z,2148
2017-10-09T08:00:23.804Z,2152
2017-10-09T08:01:04.322Z,2124
2017-10-09T08:01:44.859Z,2080
2017-10-09T08:02:25.393Z,1980
2017-10-09T08:03:05.929Z,1848
2017-10-09T08:03:46.466Z,1756
2017-10-09T08:04:27.006Z,1680
2017-10-09T08:05:07.542Z,1584
2017-10-09T08:05:48.076Z,1472
2017-10-09T08:06:28.603Z,1388
2017-10-09T08:07:09.170Z,1320
2017-10-09T08:07:49.685Z,1280
2017-10-09T08:08:30.217Z,1248
2017-10-09T08:09:10.753Z,1300
2017-10-09T08:09:51.287Z,1352
2017-10-09T08:10:31.809Z,1432
2017-10-09T08:11:12.339Z,1484
2017-10-09T08:11:52.867Z,1496
2017-10-09T08:12:33.416Z,1452
2017-10-09T08:13:13.952Z,1412
2017-10-09T08:13:54.480Z,1400
2017-10-09T08:14:35.010Z,1396
2017-10-09T08:15:15.537Z,1448
2017-10-09T08:15:56.080Z,1516
2017-10-09T08:16:36.616Z,1700
2017-10-09T08:17:17.139Z,1816
2017-10-09T08:17:57.662Z,1876
2017-10-09T08:18:38.189Z,1892
2017-10-09T08:19:18.721Z,1956
2017-10-09T08:19:59.254Z,1988
2017-10-09T08:20:39.823Z,2040
2017-10-09T08:21:20.360Z,2188
2017-10-09T08:22:00.885Z,2420
2017-10-09T08:22:41.416Z,2748
2017-10-09T08:23:21.943Z,3128
2017-10-09T08:24:02.478Z,3396
2017-10-09T08:24:43.024Z,3680
2017-10-09T08:25:23.555Z,3920
2017-10-09T08:26:04.086Z,4336
2017-10-09T08:26:44.605Z,4812
2017-10-09T08:27:25.130Z,4976
2017-10-09T08:28:05.644Z,5008
2017-10-09T08:28:46.172Z,4888
2017-10-09T08:29:26.689Z,4964
2017-10-09T08:30:07.225Z,5144
2017-10-09T08:30:47.747Z,5432
2017-10-09T08:31:28.297Z,5620
2017-10-09T08:32:08.839Z,5792
2017-10-09T08:32:49.352Z,5640
2017-10-09T08:33:29.886Z,5428
2017-10-09T08:34:10.443Z,5036
2017-10-09T08:34:50.978Z,4456
2017-10-09T08:35:31.530Z,3788
2017-10-09T08:36:12.056Z,3208
2017-10-09T08:36:52.578Z,2752
2017-10-09T08:37:33.109Z,2488
2017-10-09T08:38:13.643Z,2324
2017-10-09T08:38:54.187Z,2228
2017-10-09T08:39:34.726Z,2260
2017-10-09T08:40:15.259Z,2428
2017-10-09T08:40:55.800Z,2508
2017-10-09T08:41:36.334Z,2516
2017-10-09T08:42:16.853Z,2696
2017-10-09T08:42:57.381Z,2896
2017-10-09T08:43:37.908Z,2988
2017-10-09T08:44:18.441Z,2864
2017-10-09T08:44:58.972Z,2576
2017-10-09T08:45:39.512Z,2248
2017-10-09T08:46:20.038Z,1964
2017-10-09T08:47:00.572Z,1788
2017-10-09T08:47:41.108Z,1860
2017-10-09T08:48:21.620Z,1804
2017-10-09T08:49:02.153Z,1840
2017-10-09T08:49:42.690Z,1840
2017-10-09T08:50:23.226Z,1960
2017-10-09T08:51:03.760Z,2036
2017-10-09T08:51:44.284Z,2176
2017-10-09T08:52:24.816Z,2300
2017-10-09T08:53:05.345Z,2352
2017-10-09T08:53:45.897Z,2332
2017-10-09T08:54:26.408Z,2332
2017-10-09T08:55:06.909Z,2324
2017-10-09T08:55:47.537Z,2340
2017-10-09T08:56:28.087Z,2208
2017-10-09T08:57:08.626Z,1996
2017-10-09T08:57:49.192Z,1740
2017-10-09T08:58:29.727Z,1524
2017-10-09T08:59:10.251Z,1376
2017-10-09T08:59:50.777Z,1308
2017-10-09T09:00:31.305Z,1324
2017-10-09T09:01:11.819Z,1416
2017-10-09T09:01:52.347Z,1420
2017-10-09T09:02:32.878Z,1376
2017-10-09T09:03:13.404Z,1280
2017-10-09T09:03:53.944Z,1264
2017-10-09T09:04:34.469Z,1372
2017-10-09T09:05:15.004Z,1420
2017-10-09T09:05:55.525Z,1268
2017-10-09T09:06:36.059Z,1260
2017-10-09T09:07:16.594Z,1308
2017-10-09T09:07:57.114Z,1256
2017-10-09T09:08:37.641Z,1296
2017-10-09T09:09:18.166Z,1368
2017-10-09T09:09:58.707Z,1600
2017-10-09T09:10:39.251Z,1844
2017-10-09T09:11:19.806Z,2052
2017-10-09T09:12:00.339Z,2340
2017-10-09T09:12:40.874Z,2660
2017-10-09T09:13:21.422Z,2744
2017-10-09T09:14:01.930Z,2816
2017-10-09T09:14:42.465Z,2720
2017-10-09T09:15:22.991Z,2468
2017-10-09T09:16:03.561Z,2480
2017-10-09T09:16:44.095Z,2688
2017-10-09T09:17:24.613Z,2892
2017-10-09T09:18:05.137Z,3032
2017-10-09T09:18:45.666Z,2976
2017-10-09T09:19:26.187Z,2832
2017-10-09T09:20:06.709Z,3144
2017-10-09T09:20:47.256Z,3240
2017-10-09T09:21:27.779Z,3280
2017-10-09T09:22:08.300Z,3372
2017-10-09T09:22:48.830Z,3284
2017-10-09T09:23:29.361Z,3180
2017-10-09T09:24:09.885Z,3608
2017-10-09T09:24:50.397Z,2880
2017-10-09T09:25:30.937Z,2752
2017-10-09T09:26:11.449Z,2744
2017-10-09T09:26:52.015Z,3024
2017-10-09T09:27:32.537Z,3360
2017-10-09T09:28:13.072Z,3448
2017-10-09T09:28:53.606Z,3648
2017-10-09T09:29:34.132Z,4352
2017-10-09T09:30:14.678Z,5552
2017-10-09T09:30:55.212Z,6584
2017-10-09T09:31:35.733Z,8256
2017-10-09T09:32:16.260Z,10328
2017-10-09T09:32:56.786Z,7916
2017-10-09T09:33:37.314Z,7144
2017-10-09T09:34:17.834Z,7220
2017-10-09T09:34:58.377Z,8680
2017-10-09T09:35:38.917Z,10148
2017-10-09T09:36:19.454Z,9576
2017-10-09T09:36:59.972Z,12196